createdAt,value
2023-05-05T00:00:15.621Z,17.31
2023-05-05T00:02:42.141Z,17.29
2023-05-05T00:05:08.812Z,17.28
2023-05-05T00:07:36.681Z,17.26
2023-05-05T00:10:03.550Z,17.23
2023-05-05T00:12:30.393Z,17.21
2023-05-05T00:14:57.113Z,17.19
2023-05-05T00:17:23.528Z,17.16
2023-05-05T00:19:49.990Z,17.15
2023-05-05T00:22:16.430Z,17.13
2023-05-05T00:24:42.882Z,17.10
2023-05-05T00:27:10.329Z,17.08
2023-05-05T00:29:36.823Z,17.06
2023-05-05T00:32:03.230Z,17.04
2023-05-05T00:34:29.677Z,17.02
2023-05-05T00:36:56.342Z,17.00
2023-05-05T00:39:22.819Z,16.98
2023-05-05T00:41:49.204Z,16.97
2023-05-05T00:44:15.774Z,16.94
2023-05-05T00:46:43.379Z,16.92
2023-05-05T00:49:10.185Z,16.91
2023-05-05T00:51:36.763Z,16.90
2023-05-05T00:54:03.205Z,16.89
2023-05-05T00:56:29.722Z,16.85
2023-05-05T00:58:56.398Z,16.84
2023-05-05T01:01:23.007Z,16.83
2023-05-05T01:03:49.648Z,16.82
2023-05-05T01:06:47.227Z,16.78
2023-05-05T01:09:43.318Z,16.75
2023-05-05T01:12:38.859Z,16.73
2023-05-05T01:15:16.676Z,16.72
2023-05-05T01:17:52.614Z,16.68
2023-05-05T01:20:40.727Z,16.68
2023-05-05T01:23:09.927Z,16.67
2023-05-05T01:25:57.990Z,16.64
2023-05-05T01:28:35.779Z,16.62
2023-05-05T01:31:14.168Z,16.60
2023-05-05T01:33:47.864Z,16.58
2023-05-05T01:36:23.342Z,16.57
2023-05-05T01:38:57.405Z,16.55
2023-05-05T01:41:29.694Z,16.53
2023-05-05T01:43:59.670Z,16.51
2023-05-05T01:46:27.706Z,16.50
2023-05-05T01:48:55.909Z,16.50
2023-05-05T01:51:24.685Z,16.49
2023-05-05T01:54:00.783Z,16.48
2023-05-05T01:56:30.130Z,16.47
2023-05-05T01:58:57.422Z,16.46
2023-05-05T02:01:26.407Z,16.45
2023-05-05T02:03:56.761Z,16.44
2023-05-05T02:06:24.907Z,16.43
2023-05-05T02:08:52.954Z,16.43
2023-05-05T02:11:21.452Z,16.42
2023-05-05T02:13:49.978Z,16.42
2023-05-05T02:16:18.487Z,16.41
2023-05-05T02:18:48.868Z,16.42
2023-05-05T02:21:18.012Z,16.41
2023-05-05T02:23:47.388Z,16.40
2023-05-05T02:26:16.819Z,16.38
2023-05-05T02:29:05.539Z,16.39
2023-05-05T02:31:44.329Z,16.38
2023-05-05T02:34:12.965Z,16.38
2023-05-05T02:36:42.363Z,16.37
2023-05-05T02:39:24.980Z,16.36
2023-05-05T02:41:54.085Z,16.37
2023-05-05T02:44:23.373Z,16.36
2023-05-05T02:46:50.836Z,16.34
2023-05-05T02:49:17.354Z,16.32
2023-05-05T02:51:43.900Z,16.32
2023-05-05T02:54:10.992Z,16.30
2023-05-05T02:56:48.816Z,16.29
2023-05-05T02:59:47.425Z,16.28
2023-05-05T03:02:39.734Z,16.27
2023-05-05T03:05:23.523Z,16.25
2023-05-05T03:08:00.252Z,16.23
2023-05-05T03:10:30.441Z,16.22
2023-05-05T03:13:00.203Z,16.20
2023-05-05T03:15:31.456Z,16.18
2023-05-05T03:17:59.447Z,16.16
2023-05-05T03:20:26.722Z,16.13
2023-05-05T03:22:54.937Z,16.12
2023-05-05T03:25:21.569Z,16.09
2023-05-05T03:27:47.995Z,16.08
2023-05-05T03:30:15.201Z,16.04
2023-05-05T03:32:41.634Z,16.02
2023-05-05T03:35:08.487Z,16.01
2023-05-05T03:37:34.988Z,15.97
2023-05-05T03:40:01.510Z,15.95
2023-05-05T03:42:27.965Z,15.93
2023-05-05T03:44:54.432Z,15.91
2023-05-05T03:47:20.992Z,15.88
2023-05-05T03:49:47.627Z,15.86
2023-05-05T03:52:15.069Z,15.83
2023-05-05T03:54:42.429Z,15.83
2023-05-05T03:57:08.972Z,15.80
2023-05-05T03:59:35.483Z,15.77
2023-05-05T04:02:01.954Z,15.75
2023-05-05T04:04:28.447Z,15.73
2023-05-05T04:06:54.927Z,15.72
2023-05-05T04:09:21.250Z,15.72
2023-05-05T04:11:51.248Z,15.69
2023-05-05T04:14:17.728Z,15.67
2023-05-05T04:16:44.205Z,15.64
2023-05-05T04:19:12.978Z,15.63
2023-05-05T04:21:39.474Z,15.61
2023-05-05T04:24:06.171Z,15.59
2023-05-05T04:26:32.661Z,15.57
2023-05-05T04:28:59.129Z,15.55
2023-05-05T04:31:25.714Z,15.53
2023-05-05T04:33:52.158Z,15.53
2023-05-05T04:36:19.187Z,15.51
2023-05-05T04:38:45.843Z,15.49
2023-05-05T04:41:12.449Z,15.48
2023-05-05T04:43:38.920Z,15.44
2023-05-05T04:46:05.530Z,15.44
2023-05-05T04:48:32.086Z,15.42
2023-05-05T04:50:58.496Z,15.40
2023-05-05T04:53:25.047Z,15.39
2023-05-05T04:55:51.516Z,15.38
2023-05-05T04:58:17.918Z,15.35
2023-05-05T05:00:44.403Z,15.34
2023-05-05T05:03:11.527Z,15.32
2023-05-05T05:05:38.081Z,15.31
2023-05-05T05:08:04.758Z,15.31
2023-05-05T05:10:31.510Z,15.29
2023-05-05T05:12:57.959Z,15.28
2023-05-05T05:15:49.194Z,15.27
2023-05-05T05:29:20.781Z,15.29
2023-05-05T05:33:26.210Z,15.28
2023-05-05T05:43:47.186Z,15.32
2023-05-05T05:50:41.864Z,15.36
2023-05-05T06:03:38.784Z,15.49
2023-05-05T06:06:41.806Z,15.53
2023-05-05T06:09:30.468Z,15.56
2023-05-05T06:19:12.042Z,15.68
2023-05-05T06:37:27.551Z,15.97
2023-05-05T07:09:33.708Z,16.57
2023-05-05T07:12:50.226Z,16.65
2023-05-05T07:23:07.362Z,16.85
2023-05-05T08:28:20.204Z,18.23
2023-05-05T08:31:05.022Z,18.29
2023-05-05T08:33:42.469Z,18.36
2023-05-05T08:36:17.288Z,18.44
2023-05-05T08:42:05.775Z,18.55
2023-05-05T08:44:46.121Z,18.63
2023-05-05T08:47:39.954Z,18.70
2023-05-05T08:50:36.363Z,18.80
2023-05-05T08:56:41.822Z,18.86
2023-05-05T08:59:34.610Z,18.90
2023-05-05T09:02:38.484Z,18.92
2023-05-05T09:05:17.838Z,18.98
2023-05-05T09:08:33.616Z,19.02
2023-05-05T09:11:16.833Z,19.09
2023-05-05T09:13:52.734Z,19.16
2023-05-05T09:16:37.827Z,19.16
2023-05-05T09:19:17.626Z,19.19
2023-05-05T09:22:03.732Z,19.24
2023-05-05T09:24:48.920Z,19.28
2023-05-05T09:27:23.878Z,19.30
2023-05-05T09:30:27.850Z,19.30
2023-05-05T09:33:06.488Z,19.32
2023-05-05T09:35:56.967Z,19.31
2023-05-05T09:38:45.630Z,19.31
2023-05-05T09:41:21.064Z,19.27
2023-05-05T09:44:00.102Z,19.28
2023-05-05T09:46:43.977Z,19.21
2023-05-05T09:50:03.309Z,19.22
2023-05-05T09:52:36.304Z,19.27
2023-05-05T09:55:20.219Z,19.29
2023-05-05T09:58:10.511Z,19.30
2023-05-05T10:00:52.455Z,19.29
2023-05-05T10:03:30.153Z,19.32
2023-05-05T10:06:10.574Z,19.33
2023-05-05T10:08:54.708Z,19.35
2023-05-05T10:11:27.520Z,19.36
2023-05-05T10:14:19.283Z,19.34
2023-05-05T10:17:06.199Z,19.36
2023-05-05T10:20:10.093Z,19.35
2023-05-05T10:26:16.332Z,19.31
2023-05-05T10:29:04.586Z,19.25
2023-05-05T10:32:00.495Z,19.22
2023-05-05T10:34:59.652Z,19.18
2023-05-05T10:38:31.747Z,19.21
2023-05-05T10:41:23.872Z,19.18
2023-05-05T10:45:21.556Z,19.09
2023-05-05T10:51:48.326Z,18.99
2023-05-05T11:02:06.317Z,18.83
2023-05-05T11:09:05.203Z,18.79
2023-05-05T11:26:31.953Z,18.54
2023-05-05T12:31:02.308Z,17.67
2023-05-05T12:33:28.972Z,17.64
2023-05-05T12:35:55.562Z,17.61
2023-05-05T12:38:24.828Z,17.59
2023-05-05T12:40:57.015Z,17.58
2023-05-05T12:43:34.709Z,17.55
2023-05-05T12:46:02.221Z,17.53
2023-05-05T12:48:28.742Z,17.52
2023-05-05T12:50:55.943Z,17.49
2023-05-05T12:53:26.272Z,17.47
2023-05-05T14:28:01.259Z,17.02
2023-05-05T14:30:27.743Z,17.01
2023-05-05T14:33:02.666Z,16.98
2023-05-05T14:35:32.970Z,16.97
2023-05-05T14:37:59.490Z,16.96
2023-05-05T14:40:26.003Z,16.93
2023-05-05T14:42:52.469Z,16.93
2023-05-05T14:45:18.921Z,16.92
2023-05-05T14:47:45.485Z,16.91
2023-05-05T14:50:11.945Z,16.91
2023-05-05T14:52:40.082Z,16.89
2023-05-05T14:55:08.020Z,16.89
2023-05-05T14:57:34.748Z,16.91
2023-05-05T15:00:01.222Z,16.92
2023-05-05T15:02:27.734Z,16.93
2023-05-05T15:04:54.285Z,16.95
2023-05-05T15:07:22.146Z,16.95
2023-05-05T15:09:48.506Z,16.97
2023-05-05T15:12:14.981Z,16.99
2023-05-05T15:14:41.746Z,17.00
2023-05-05T15:17:08.163Z,17.01
2023-05-05T15:19:34.701Z,17.03
2023-05-05T15:22:01.212Z,17.04
2023-05-05T15:24:27.599Z,17.05
2023-05-05T15:26:54.059Z,17.06
2023-05-05T15:29:21.236Z,17.06
2023-05-05T15:31:47.793Z,17.07
2023-05-05T15:34:14.390Z,17.08
2023-05-05T15:36:40.772Z,17.08
2023-05-05T19:03:14.283Z,16.78
2023-05-05T19:27:49.316Z,16.49
2023-05-05T21:54:08.037Z,14.44
2023-05-05T21:57:56.869Z,14.41
2023-05-05T22:57:09.765Z,13.85
2023-05-05T23:25:01.991Z,13.60
2023-05-05T23:27:36.395Z,13.58
2023-05-05T23:30:32.100Z,13.57
2023-05-05T23:33:11.377Z,13.56
2023-05-05T23:35:52.275Z,13.55
2023-05-05T23:38:38.974Z,13.54
2023-05-05T23:41:19.260Z,13.53
2023-05-05T23:44:00.594Z,13.51
2023-05-05T23:46:40.672Z,13.51
2023-05-05T23:49:21.846Z,13.49
2023-05-05T23:52:32.773Z,13.49
2023-05-05T23:55:11.240Z,13.48
2023-05-05T23:57:47.842Z,13.46
